Time;durP1;ratioP1;P1;durP2;ratioP2;P2;SDS_P1;SDS_P2;PMS_P1;PMS_P2;Temp;Humidity;BMP_temperature;BMP_pressure;BME280_temperature;BME280_humidity;BME280_pressure;Samples;Min_cycle;Max_cycle;Signal;HPM_P1;HPM_P2
2023/10/15 00:00:26;;;;;;;;;;;;;;;16.52;74.79;98950.08;106104;1260;69957;-80
2023/10/15 00:02:54;;;;;;;9.80;6.60;;;;;;;16.47;75.01;98941.52;107181;1259;72495;-83
2023/10/15 00:05:25;;;;;;;10.10;6.70;;;;;;;16.43;75.27;98929.88;107819;1257;60419;-80
2023/10/15 00:07:53;;;;;;;11.70;6.90;;;;;;;16.41;75.72;98935.25;107943;1253;60280;-83
2023/10/15 00:10:22;;;;;;;13.80;7.00;;;;;;;16.47;75.48;98938.80;108846;1253;72632;-83
2023/10/15 00:12:51;;;;;;;10.90;5.90;;;;;;;16.47;75.52;98936.00;107529;1253;68750;-82
2023/10/15 00:15:19;;;;;;;9.30;6.60;;;;;;;16.43;75.84;98934.61;106010;1259;71846;-83
2023/10/15 00:17:50;;;;;;;16.80;6.20;;;;;;;16.40;76.03;98928.83;106314;1254;60423;-82
2023/10/15 00:20:23;;;;;;;13.50;6.30;;;;;;;16.44;76.00;98935.80;105893;1260;60877;-84
2023/10/15 00:22:51;;;;;;;9.90;6.60;;;;;;;16.46;76.07;98937.52;106197;1258;72376;-87
2023/10/15 00:25:21;;;;;;;12.60;6.60;;;;;;;16.42;76.31;98935.16;106401;1260;70622;-86
2023/10/15 00:27:52;;;;;;;7.70;5.60;;;;;;;16.36;76.79;98954.24;106082;1254;71172;-83
2023/10/15 00:30:21;;;;;;;13.80;6.40;;;;;;;16.37;76.82;98931.91;106087;1258;60945;-82
2023/10/15 00:32:49;;;;;;;13.60;6.80;;;;;;;16.41;76.73;98942.90;106014;1253;60351;-83
2023/10/15 00:35:19;;;;;;;11.60;6.40;;;;;;;16.38;77.08;98935.46;105762;1258;72626;-83
2023/10/15 00:37:57;;;;;;;9.80;5.60;;;;;;;16.31;77.28;98930.09;106021;1254;70058;-82
2023/10/15 00:40:25;;;;;;;10.70;6.00;;;;;;;16.31;77.50;98932.45;105897;1259;71444;-80
2023/10/15 00:42:52;;;;;;;16.50;6.20;;;;;;;16.33;77.53;98922.20;105755;1258;60531;-79
2023/10/15 00:45:20;;;;;;;11.00;6.10;;;;;;;16.29;77.75;98929.29;105703;1258;60484;-83
2023/10/15 00:48:08;;;;;;;8.90;5.30;;;;;;;16.23;78.17;98925.24;105606;1259;72882;-84
2023/10/15 00:50:44;;;;;;;7.50;5.60;;;;;;;16.24;78.25;98930.67;105732;1261;68706;-84
2023/10/15 00:53:22;;;;;;;10.20;6.20;;;;;;;16.21;78.47;98931.45;105803;1259;71948;-84
2023/10/15 00:56:03;;;;;;;10.90;6.60;;;;;;;16.14;78.88;98921.14;106075;1255;60438;-82
2023/10/15 00:58:35;;;;;;;7.80;5.30;;;;;;;16.08;79.40;98920.31;107170;1254;60348;-81
2023/10/15 01:01:38;;;;;;;13.70;5.30;;;;;;;16.12;79.13;98915.19;105916;1260;73877;-82
2023/10/15 01:03:59;;;;;;;9.50;6.20;;;;;;;16.10;79.27;98923.05;106011;1259;72114;-83
2023/10/15 01:09:09;;;;;;;10.20;5.60;;;;;;;16.05;79.69;98907.48;106036;1258;60547;-81
2023/10/15 01:11:50;;;;;;;14.10;6.40;;;;;;;16.02;79.84;98912.21;107066;1253;60444;-80
2023/10/15 01:14:25;;;;;;;11.00;5.60;;;;;;;15.97;80.26;98917.22;107976;1254;72432;-83
2023/10/15 01:16:53;;;;;;;8.80;5.60;;;;;;;16.01;80.40;98915.98;107764;1262;69047;-84
2023/10/15 01:19:31;;;;;;;9.10;5.90;;;;;;;16.03;80.20;98919.27;106497;1262;72493;-81
2023/10/15 01:22:03;;;;;;;11.60;6.10;;;;;;;15.95;80.64;98921.17;108133;1258;60306;-84
2023/10/15 01:24:38;;;;;;;12.10;6.20;;;;;;;15.96;80.77;98912.02;107848;1259;60443;-84
2023/10/15 01:27:09;;;;;;;10.70;6.10;;;;;;;15.96;80.78;98913.59;106374;1259;72604;-83
2023/10/15 01:29:40;;;;;;;12.50;6.20;;;;;;;15.89;81.01;98907.95;106992;1255;69974;-81
2023/10/15 01:32:26;;;;;;;7.90;5.90;;;;;;;15.88;81.17;98904.84;108993;1254;73199;-84
2023/10/15 01:34:55;;;;;;;10.00;5.80;;;;;;;15.90;81.23;98903.73;105856;1260;60408;-83
2023/10/15 01:39:52;;;;;;;21.60;7.20;;;;;;;15.79;82.00;98894.26;106098;1260;72633;-85
2023/10/15 01:45:13;;;;;;;10.30;6.60;;;;;;;15.78;82.02;98904.23;107969;1256;70657;-82
2023/10/15 01:48:01;;;;;;;12.30;5.80;;;;;;;15.69;82.80;98907.48;106799;1255;60706;-85
2023/10/15 01:53:09;;;;;;;7.70;5.20;;;;;;;15.66;82.90;98897.98;105810;1254;72662;-84
2023/10/15 01:55:36;;;;;;;11.00;5.90;;;;;;;15.60;83.25;98898.66;105821;1260;69100;-82
2023/10/15 01:58:05;;;;;;;9.70;5.20;;;;;;;15.51;83.89;98901.02;106035;1260;71379;-82
2023/10/15 02:00:34;;;;;;;11.40;6.20;;;;;;;15.51;84.03;98897.43;106124;1259;60744;-81
2023/10/15 02:03:01;;;;;;;13.50;5.40;;;;;;;15.48;83.95;98891.90;106002;1259;60429;-82
2023/10/15 02:05:42;;;;;;;11.50;6.00;;;;;;;15.40;84.43;98893.30;105983;1259;73981;-86
2023/10/15 02:08:13;;;;;;;12.30;5.30;;;;;;;15.37;84.71;98892.51;105786;1263;69218;-80
2023/10/15 02:10:46;;;;;;;9.80;6.10;;;;;;;15.39;84.58;98891.33;106472;1260;72798;-80
2023/10/15 02:13:16;;;;;;;10.00;6.00;;;;;;;15.34;84.80;98889.89;106075;1255;60505;-80
2023/10/15 02:15:43;;;;;;;12.30;5.30;;;;;;;15.28;85.12;98896.58;106417;1254;60546;-80
2023/10/15 02:18:14;;;;;;;9.10;5.30;;;;;;;15.29;85.18;98894.42;108547;1253;73959;-78
2023/10/15 02:20:46;;;;;;;7.50;5.00;;;;;;;15.29;85.35;98890.77;108355;1253;69631;-80
2023/10/15 02:23:20;;;;;;;10.90;5.40;;;;;;;15.23;85.40;98883.02;107449;1253;71217;-82
2023/10/15 02:26:01;;;;;;;7.60;5.20;;;;;;;15.20;85.86;98886.19;106350;1254;61650;-81
2023/10/15 02:28:31;;;;;;;9.50;5.90;;;;;;;15.21;85.97;98884.45;107985;1253;59182;-79
2023/10/15 02:31:10;;;;;;;9.10;5.30;;;;;;;15.15;86.10;98881.02;106750;1260;73901;-81
2023/10/15 02:33:39;;;;;;;10.70;5.40;;;;;;;15.12;86.19;98875.88;106793;1254;69085;-78
2023/10/15 02:36:09;;;;;;;10.30;5.50;;;;;;;15.13;86.32;98876.73;106655;1260;71608;-78
2023/10/15 02:38:39;;;;;;;10.10;6.00;;;;;;;15.08;86.57;98879.20;106474;1259;60531;-81
2023/10/15 02:41:07;;;;;;;11.50;5.50;;;;;;;15.03;86.89;98880.81;105871;1256;60541;-83
2023/10/15 02:43:46;;;;;;;13.00;5.40;;;;;;;15.05;86.83;98875.20;106018;1259;73798;-79
2023/10/15 02:46:23;;;;;;;10.30;6.10;;;;;;;15.04;86.94;98874.94;106144;1256;70394;-82
2023/10/15 02:48:53;;;;;;;8.70;5.80;;;;;;;14.96;87.04;98870.66;106365;1257;71475;-81
2023/10/15 02:51:24;;;;;;;11.60;5.40;;;;;;;14.91;87.28;98872.80;106078;1257;61660;-78
2023/10/15 02:53:54;;;;;;;12.50;5.90;;;;;;;14.94;87.14;98869.98;107513;1254;60507;-83
2023/10/15 02:56:22;;;;;;;11.10;6.10;;;;;;;14.95;87.28;98867.22;108207;1253;71725;-82
2023/10/15 02:58:50;;;;;;;8.50;5.30;;;;;;;14.89;87.70;98873.77;106473;1260;68706;-81
2023/10/15 03:01:19;;;;;;;8.90;4.90;;;;;;;14.87;87.87;98875.99;106187;1255;71456;-81
2023/10/15 03:03:49;;;;;;;13.50;5.60;;;;;;;14.88;87.75;98867.84;106007;1254;60839;-81
2023/10/15 03:06:34;;;;;;;9.80;6.10;;;;;;;14.83;87.98;98870.51;105833;1260;61108;-82
2023/10/15 03:09:11;;;;;;;6.90;5.80;;;;;;;14.77;88.30;98866.98;105927;1260;73881;-79
2023/10/15 03:11:39;;;;;;;9.10;5.80;;;;;;;14.80;88.14;98861.16;105791;1258;69722;-79
2023/10/15 03:14:06;;;;;;;12.10;5.80;;;;;;;14.81;88.38;98862.23;105969;1259;72487;-80
2023/10/15 03:16:35;;;;;;;11.80;6.20;;;;;;;14.76;88.38;98857.23;105946;1258;60428;-78
2023/10/15 03:19:23;;;;;;;12.00;5.90;;;;;;;14.73;88.61;98859.61;105963;1254;60365;-80
2023/10/15 03:21:59;;;;;;;8.00;5.70;;;;;;;14.78;88.51;98860.14;106841;1257;73060;-80
2023/10/15 03:24:32;;;;;;;8.90;5.80;;;;;;;14.79;88.32;98859.20;106326;1255;68926;-80
2023/10/15 03:27:00;;;;;;;8.90;5.50;;;;;;;14.72;88.72;98856.81;105967;1255;72682;-80
2023/10/15 03:29:29;;;;;;;9.40;5.40;;;;;;;14.71;88.94;98854.35;105998;1258;61040;-81
2023/10/15 03:32:04;;;;;;;7.70;6.40;;;;;;;14.69;89.00;98852.64;106120;1260;60436;-82
2023/10/15 03:34:35;;;;;;;8.20;5.40;;;;;;;14.62;89.38;98850.36;106094;1254;72822;-78
2023/10/15 03:37:05;;;;;;;11.70;6.30;;;;;;;14.62;89.49;98855.52;106163;1259;69241;-79
2023/10/15 03:42:10;;;;;;;13.10;6.30;;;;;;;14.54;89.69;98852.58;106087;1255;60599;-82
2023/10/15 03:44:44;;;;;;;8.90;6.50;;;;;;;14.54;89.79;98849.09;105970;1258;60576;-81
2023/10/15 03:47:13;;;;;;;9.60;6.30;;;;;;;14.51;89.80;98852.69;107175;1258;72320;-80
2023/10/15 03:49:44;;;;;;;13.30;6.80;;;;;;;14.43;90.42;98857.05;107461;1254;69903;-82
2023/10/15 03:52:20;;;;;;;9.80;6.90;;;;;;;14.40;90.57;98856.05;107803;1254;71059;-83
2023/10/15 03:54:52;;;;;;;10.50;6.30;;;;;;;14.42;90.44;98853.03;106585;1254;60480;-80
2023/10/15 03:57:28;;;;;;;11.60;7.00;;;;;;;14.40;90.67;98849.27;106316;1257;60425;-80
2023/10/15 03:59:55;;;;;;;12.50;6.70;;;;;;;14.32;91.01;98847.41;105901;1259;73910;-80
2023/10/15 04:02:46;;;;;;;15.10;6.20;;;;;;;14.29;91.16;98843.09;106082;1254;70000;-83
2023/10/15 04:05:14;;;;;;;8.50;5.80;;;;;;;14.31;91.21;98844.26;105976;1258;71515;-83
2023/10/15 04:07:48;;;;;;;17.60;11.60;;;;;;;14.26;91.39;98843.50;106621;1260;59885;-83
2023/10/15 04:10:23;;;;;;;13.70;6.80;;;;;;;14.20;91.76;98831.58;106057;1254;60417;-87
2023/10/15 04:12:51;;;;;;;10.00;6.80;;;;;;;14.21;91.53;98839.09;105990;1259;72729;-87
2023/10/15 04:15:21;;;;;;;11.90;7.10;;;;;;;14.22;91.67;98843.44;106656;1254;69033;-85
2023/10/15 04:17:51;;;;;;;9.80;7.00;;;;;;;14.13;91.94;98841.73;105856;1258;72379;-85
2023/10/15 04:20:35;;;;;;;11.50;7.00;;;;;;;14.10;92.29;98845.10;106315;1254;60677;-85
2023/10/15 04:23:03;;;;;;;10.90;7.60;;;;;;;14.11;92.23;98844.69;106435;1258;59490;-85
2023/10/15 04:25:36;;;;;;;11.40;8.00;;;;;;;14.08;92.27;98848.11;108699;1254;71979;-83
2023/10/15 04:28:14;;;;;;;13.70;7.10;;;;;;;14.02;92.80;98845.35;108958;1254;68732;-86
2023/10/15 04:30:42;;;;;;;16.00;7.10;;;;;;;14.03;92.76;98848.14;108006;1256;71163;-85
2023/10/15 04:33:13;;;;;;;10.60;7.40;;;;;;;14.05;92.76;98853.80;107098;1253;60530;-81
2023/10/15 04:35:42;;;;;;;12.30;7.50;;;;;;;14.01;92.67;98856.33;109065;1254;60022;-84
2023/10/15 04:38:15;;;;;;;11.20;7.00;;;;;;;14.00;92.72;98854.52;109327;1254;72563;-84
2023/10/15 04:43:17;;;;;;;;;;;;;;;14.07;92.58;98861.19;109318;1253;72814;-83
2023/10/15 04:45:46;;;;;;;9.20;8.00;;;;;;;14.01;92.68;98867.53;109331;1254;58846;-82
2023/10/15 04:48:15;;;;;;;11.00;6.90;;;;;;;13.98;92.90;98865.41;109069;1254;59251;-82
2023/10/15 04:50:45;;;;;;;11.20;7.00;;;;;;;14.02;92.77;98866.41;109166;1253;74144;-82
2023/10/15 04:53:13;;;;;;;10.80;7.00;;;;;;;14.05;92.59;98862.17;108708;1254;68003;-81
2023/10/15 04:55:42;;;;;;;10.90;7.00;;;;;;;14.03;92.59;98861.69;108722;1254;71100;-82
2023/10/15 04:58:10;;;;;;;12.20;7.70;;;;;;;13.99;92.52;98860.44;109036;1254;60466;-79
2023/10/15 05:00:42;;;;;;;13.20;7.50;;;;;;;14.04;92.27;98860.61;108255;1254;60304;-79
2023/10/15 05:03:09;;;;;;;12.10;7.70;;;;;;;14.08;92.12;98862.73;108527;1254;73855;-83
2023/10/15 05:05:37;;;;;;;10.80;7.40;;;;;;;14.05;92.07;98859.67;108691;1254;68729;-80
2023/10/15 05:08:10;;;;;;;11.00;7.70;;;;;;;14.06;92.24;98860.20;108735;1253;72734;-80
2023/10/15 05:10:50;;;;;;;11.00;8.00;;;;;;;14.12;91.79;98863.29;109143;1254;60381;-85
2023/10/15 05:13:18;;;;;;;13.80;7.80;;;;;;;14.12;91.67;98872.30;109362;1254;58793;-79
2023/10/15 05:15:48;;;;;;;12.00;7.30;;;;;;;14.07;91.65;98875.48;109461;1253;72397;-86
2023/10/15 05:18:18;;;;;;;10.30;7.40;;;;;;;14.10;91.71;98877.80;109503;1253;69047;-84
2023/10/15 05:20:53;;;;;;;10.50;7.50;;;;;;;14.14;91.40;98875.73;109375;1253;70899;-81
2023/10/15 05:23:22;;;;;;;10.50;8.10;;;;;;;14.16;91.23;98874.55;109293;1254;59079;-83
2023/10/15 05:25:50;;;;;;;11.60;7.70;;;;;;;14.14;91.01;98876.64;109302;1253;58733;-83
2023/10/15 05:28:18;;;;;;;15.90;7.60;;;;;;;14.19;91.01;98882.57;109191;1252;71640;-82
2023/10/15 05:30:45;;;;;;;13.00;7.60;;;;;;;14.26;90.72;98885.92;109313;1255;68940;-82
2023/10/15 05:33:13;;;;;;;12.70;7.80;;;;;;;14.25;90.54;98890.85;108676;1253;71348;-83
2023/10/15 05:35:47;;;;;;;11.00;6.90;;;;;;;14.25;90.52;98895.54;108821;1252;60695;-81
2023/10/15 05:38:19;;;;;;;11.20;6.80;;;;;;;14.32;90.03;98895.49;109230;1253;59145;-81
2023/10/15 05:40:46;;;;;;;10.80;7.20;;;;;;;14.36;89.85;98895.98;109319;1253;71629;-81
2023/10/15 05:43:14;;;;;;;13.10;7.90;;;;;;;14.34;89.54;98900.52;109309;1254;68919;-83
2023/10/15 05:45:47;;;;;;;11.60;7.00;;;;;;;14.37;89.54;98897.62;109338;1253;71087;-81
2023/10/15 05:48:17;;;;;;;14.00;6.90;;;;;;;14.43;89.09;98901.26;108963;1252;62508;-83
2023/10/15 05:50:49;;;;;;;9.30;7.30;;;;;;;14.47;88.84;98892.46;108972;1252;60351;-81
2023/10/15 05:53:16;;;;;;;13.70;8.10;;;;;;;14.46;88.49;98896.02;109272;1254;72647;-80
2023/10/15 05:55:44;;;;;;;10.30;7.40;;;;;;;14.46;88.62;98902.80;109445;1253;68709;-82
2023/10/15 05:58:11;;;;;;;15.50;7.20;;;;;;;14.53;88.22;98896.22;109401;1253;71645;-82
2023/10/15 06:00:39;;;;;;;12.00;6.70;;;;;;;14.61;87.47;98903.19;108900;1253;59269;-79
2023/10/15 06:03:08;;;;;;;11.10;8.00;;;;;;;14.60;86.73;98907.60;106240;1258;60566;-79
2023/10/15 06:05:36;;;;;;;11.00;7.70;;;;;;;14.61;86.49;98903.00;106345;1258;73932;-76
2023/10/15 06:08:04;;;;;;;10.90;7.90;;;;;;;14.70;86.30;98906.44;106548;1253;69998;-76
2023/10/15 06:10:32;;;;;;;12.50;8.00;;;;;;;14.74;86.06;98905.88;106228;1258;71088;-78
2023/10/15 06:13:01;;;;;;;11.70;8.30;;;;;;;14.76;86.05;98909.96;106295;1254;60554;-77
2023/10/15 06:15:29;;;;;;;14.10;8.00;;;;;;;14.87;85.51;98913.80;106456;1252;60521;-78
2023/10/15 06:17:58;;;;;;;15.90;8.70;;;;;;;15.03;84.59;98913.48;106287;1257;73826;-77
2023/10/15 06:20:26;;;;;;;11.70;8.50;;;;;;;15.07;83.76;98917.04;106158;1260;69202;-75
2023/10/15 06:22:57;;;;;;;14.90;8.90;;;;;;;15.05;83.86;98914.26;106277;1253;72658;-77
2023/10/15 06:25:24;;;;;;;13.30;7.80;;;;;;;15.08;83.51;98918.88;106347;1254;60570;-75
2023/10/15 06:27:52;;;;;;;13.90;9.70;;;;;;;15.18;83.06;98917.82;106468;1257;60412;-77
2023/10/15 06:30:20;;;;;;;11.70;8.10;;;;;;;15.22;82.50;98926.38;106417;1254;72602;-76
2023/10/15 06:32:52;;;;;;;13.20;9.40;;;;;;;15.20;82.53;98922.83;106346;1253;70106;-76
2023/10/15 06:35:23;;;;;;;15.90;9.00;;;;;;;15.22;82.11;98928.91;107782;1253;71440;-77
2023/10/15 06:37:55;;;;;;;14.60;9.50;;;;;;;15.31;81.84;98926.89;108210;1253;60478;-77
2023/10/15 06:40:26;;;;;;;13.60;9.40;;;;;;;15.36;81.41;98931.30;108299;1253;60492;-76
2023/10/15 06:43:01;;;;;;;15.40;8.90;;;;;;;15.35;81.35;98930.56;108876;1253;73748;-76
2023/10/15 06:45:30;;;;;;;17.70;10.00;;;;;;;15.34;81.18;98931.28;109044;1253;68890;-76
2023/10/15 06:47:57;;;;;;;12.70;7.90;;;;;;;15.37;81.14;98931.95;109152;1252;71411;-75
2023/10/15 06:50:25;;;;;;;11.00;8.90;;;;;;;15.44;80.71;98932.11;109200;1253;59143;-75
2023/10/15 06:52:54;;;;;;;13.90;8.90;;;;;;;15.46;80.56;98937.98;109078;1252;59299;-74
2023/10/15 06:55:22;;;;;;;14.70;9.50;;;;;;;15.42;80.63;98940.91;109138;1253;73554;-74
2023/10/15 06:57:49;;;;;;;15.60;9.40;;;;;;;15.41;80.56;98945.13;108947;1253;68971;-75
2023/10/15 07:00:23;;;;;;;14.40;8.40;;;;;;;15.40;80.46;98944.89;109188;1254;71202;-73
2023/10/15 07:02:52;;;;;;;12.40;9.10;;;;;;;15.46;80.17;98945.01;109095;1252;60416;-75
2023/10/15 07:05:21;;;;;;;14.60;10.00;;;;;;;15.49;79.98;98940.54;109096;1253;58917;-73
2023/10/15 07:07:48;;;;;;;17.60;10.10;;;;;;;15.45;80.18;98939.08;108959;1253;72594;-72
2023/10/15 07:10:16;;;;;;;15.30;9.40;;;;;;;15.44;80.05;98930.36;108504;1253;69168;-74
2023/10/15 07:12:45;;;;;;;14.90;10.20;;;;;;;15.45;80.38;98926.77;108199;1254;71086;-71
2023/10/15 07:15:13;;;;;;;14.70;8.50;;;;;;;15.52;80.13;98923.54;108197;1252;60458;-73
2023/10/15 07:17:41;;;;;;;12.20;8.70;;;;;;;15.66;79.81;98917.56;108574;1253;58901;-74
2023/10/15 07:20:21;;;;;;;16.80;8.80;;;;;;;15.81;79.51;98919.26;109142;1252;72577;-73
2023/10/15 07:22:50;;;;;;;13.90;9.40;;;;;;;15.88;78.72;98920.98;109207;1253;69064;-74
2023/10/15 07:25:19;;;;;;;15.30;9.30;;;;;;;15.87;78.24;98930.02;109139;1252;71871;-72
2023/10/15 07:27:48;;;;;;;14.40;9.10;;;;;;;15.84;77.90;98937.39;108317;1253;59359;-71
2023/10/15 07:33:17;;;;;;;15.60;9.40;;;;;;;15.89;78.11;98942.98;105587;1290;599592;-73
2023/10/15 07:35:46;;;;;;;11.80;9.00;;;;;;;15.91;77.78;98947.09;107871;1266;58938;-74
2023/10/15 07:38:14;;;;;;;16.50;9.20;;;;;;;15.91;77.92;98946.45;107935;1266;58819;-72
2023/10/15 07:40:42;;;;;;;11.90;8.30;;;;;;;15.94;77.86;98946.98;107466;1265;73226;-73
2023/10/15 07:43:11;;;;;;;14.60;9.40;;;;;;;15.97;77.51;98945.16;108561;1256;68804;-73
2023/10/15 07:45:45;;;;;;;12.60;7.60;;;;;;;16.00;77.38;98949.66;108386;1254;181304;-73
2023/10/15 07:48:12;;;;;;;11.70;9.00;;;;;;;16.09;77.13;98958.84;108874;1252;60590;-74
2023/10/15 07:50:40;;;;;;;15.80;8.90;;;;;;;16.10;76.84;98958.42;108540;1253;58215;-74
2023/10/15 07:53:07;;;;;;;14.10;8.50;;;;;;;16.05;76.83;98959.34;108637;1251;70161;-73
2023/10/15 07:55:35;;;;;;;14.60;9.70;;;;;;;16.01;76.77;98961.80;108850;1251;68698;-73
2023/10/15 07:58:02;;;;;;;18.90;10.10;;;;;;;15.94;76.99;98959.45;108909;1252;72790;-74
2023/10/15 08:00:30;;;;;;;13.20;8.30;;;;;;;15.92;77.19;98951.52;108925;1253;60405;-75
2023/10/15 08:02:59;;;;;;;11.50;8.60;;;;;;;15.99;76.99;98948.08;108297;1252;59398;-73
2023/10/15 08:05:28;;;;;;;13.90;8.40;;;;;;;16.03;76.96;98953.12;108560;1251;73106;-72
2023/10/15 08:07:57;;;;;;;12.00;8.80;;;;;;;16.04;77.25;98948.76;108617;1251;69073;-73
2023/10/15 08:10:31;;;;;;;11.70;9.20;;;;;;;16.09;77.43;98947.05;108446;1256;71217;-73
2023/10/15 08:12:59;;;;;;;15.50;9.30;;;;;;;16.19;77.23;98950.16;108823;1251;59795;-72
2023/10/15 08:15:27;;;;;;;11.60;8.50;;;;;;;16.23;76.90;98951.62;108180;1251;59521;-73
2023/10/15 08:17:57;;;;;;;12.60;7.90;;;;;;;16.24;76.85;98962.70;108026;1251;73078;-72
2023/10/15 08:20:26;;;;;;;12.20;9.50;;;;;;;16.39;76.99;98967.94;108852;1253;68715;-74
2023/10/15 08:22:53;;;;;;;14.30;8.70;;;;;;;16.55;76.85;98965.96;109161;1252;71407;-73
2023/10/15 08:25:25;;;;;;;12.40;9.10;;;;;;;16.65;76.49;98962.50;108864;1252;59676;-74
2023/10/15 08:27:52;;;;;;;13.80;9.00;;;;;;;16.71;76.23;98957.33;108868;1252;58764;-73
2023/10/15 08:30:21;;;;;;;12.60;9.30;;;;;;;16.76;76.01;98953.17;108561;1251;71746;-73
2023/10/15 08:32:50;;;;;;;15.50;10.40;;;;;;;16.79;75.80;98954.07;108350;1253;68892;-70
2023/10/15 08:35:17;;;;;;;13.40;8.10;;;;;;;16.80;75.81;98957.64;108656;1258;70374;-73
2023/10/15 08:37:45;;;;;;;9.50;7.70;;;;;;;16.91;75.66;98963.38;108759;1253;60421;-75
2023/10/15 08:40:17;;;;;;;12.50;8.70;;;;;;;17.01;75.54;98968.71;109022;1253;58588;-74
2023/10/15 08:42:57;;;;;;;9.60;7.70;;;;;;;17.02;75.51;98970.19;108816;1254;71798;-72
2023/10/15 08:45:24;;;;;;;10.40;8.30;;;;;;;16.98;75.62;98970.41;108994;1254;68709;-73
2023/10/15 08:47:53;;;;;;;8.80;7.90;;;;;;;16.94;75.74;98970.10;108433;1255;71444;-72
2023/10/15 08:50:21;;;;;;;12.90;8.70;;;;;;;16.89;75.79;98972.91;108939;1253;59194;-73
2023/10/15 08:52:52;;;;;;;11.40;7.50;;;;;;;16.89;75.87;98978.40;108616;1254;59834;-71
2023/10/15 08:55:24;;;;;;;8.50;7.20;;;;;;;16.94;75.86;98975.30;108722;1253;71989;-72
2023/10/15 08:57:54;;;;;;;9.00;7.90;;;;;;;16.96;75.86;98975.56;108482;1253;69937;-74
2023/10/15 09:00:26;;;;;;;10.20;7.80;;;;;;;16.93;75.77;98975.27;108891;1253;72036;-75
2023/10/15 09:03:00;;;;;;;9.10;6.80;;;;;;;16.85;75.72;98981.28;106100;1253;60001;-73
2023/10/15 09:05:33;;;;;;;9.90;7.20;;;;;;;16.74;75.86;98984.62;108932;1253;60122;-75
2023/10/15 09:08:06;;;;;;;10.30;7.60;;;;;;;16.66;76.09;98984.84;109047;1254;72049;-75
2023/10/15 09:10:41;;;;;;;8.50;6.60;;;;;;;16.68;76.12;98990.95;108944;1253;68072;-73
2023/10/15 09:13:14;;;;;;;9.90;7.00;;;;;;;16.71;76.18;98991.50;109022;1253;72010;-75
2023/10/15 09:15:43;;;;;;;8.60;7.10;;;;;;;16.67;76.44;98994.82;109025;1253;58797;-72
2023/10/15 09:18:20;;;;;;;12.30;7.50;;;;;;;16.64;76.56;98995.67;108891;1256;59154;-71
2023/10/15 09:20:51;;;;;;;9.30;7.50;;;;;;;16.61;76.73;98993.66;108756;1253;72301;-73
2023/10/15 09:23:23;;;;;;;10.00;8.40;;;;;;;16.61;76.75;98996.21;108810;1253;69049;-75
2023/10/15 09:25:52;;;;;;;9.00;7.00;;;;;;;16.64;76.89;99006.13;108257;1258;71187;-72
2023/10/15 09:28:20;;;;;;;9.60;6.80;;;;;;;16.74;76.72;99009.88;108056;1253;60481;-74
2023/10/15 09:30:47;;;;;;;9.80;7.10;;;;;;;16.76;76.42;99007.25;108211;1253;59548;-71
2023/10/15 09:33:17;;;;;;;8.70;6.50;;;;;;;16.71;76.61;98998.11;108913;1253;72015;-73
2023/10/15 09:35:45;;;;;;;8.20;7.30;;;;;;;16.63;76.72;98999.34;108747;1253;68927;-70
2023/10/15 09:38:14;;;;;;;8.10;6.70;;;;;;;16.54;76.91;98998.44;108535;1253;71157;-72
2023/10/15 09:40:45;;;;;;;8.70;6.30;;;;;;;16.49;77.08;99000.27;107961;1256;60705;-72
2023/10/15 09:43:14;;;;;;;10.00;6.50;;;;;;;16.54;77.04;98999.99;108208;1253;59275;-75
2023/10/15 09:45:43;;;;;;;9.70;6.90;;;;;;;16.61;77.00;99002.65;107957;1253;72069;-71
2023/10/15 09:48:10;;;;;;;8.00;6.70;;;;;;;16.59;77.01;99001.80;108184;1255;68782;-71
2023/10/15 09:50:38;;;;;;;11.50;6.80;;;;;;;16.60;77.01;99002.20;107875;1254;71356;-72
2023/10/15 09:53:12;;;;;;;8.10;6.30;;;;;;;16.58;77.02;99004.98;107927;1259;59103;-73
2023/10/15 09:55:40;;;;;;;7.40;6.70;;;;;;;16.55;76.76;99006.06;107588;1255;59610;-71
2023/10/15 09:58:12;;;;;;;7.40;5.90;;;;;;;16.50;76.74;99009.58;107704;1255;71780;-71
2023/10/15 10:00:46;;;;;;;8.20;5.90;;;;;;;16.56;76.48;99005.96;107600;1258;68762;-71
2023/10/15 10:03:33;;;;;;;8.10;6.20;;;;;;;16.60;76.44;99009.55;107804;1253;71406;-71
2023/10/15 10:06:31;;;;;;;7.90;5.90;;;;;;;16.56;76.55;99011.86;107893;1254;59693;-72
2023/10/15 10:09:02;;;;;;;9.90;6.50;;;;;;;16.52;76.77;99014.89;107786;1254;59038;-72
2023/10/15 10:11:45;;;;;;;8.40;6.20;;;;;;;16.39;76.99;99015.98;107862;1254;72193;-70
2023/10/15 10:14:16;;;;;;;;;;;;;;;16.25;77.51;99018.14;107652;1255;69315;-74
2023/10/15 10:16:43;;;;;;;7.40;6.10;;;;;;;16.23;78.10;99018.17;107479;1253;72691;-72
2023/10/15 10:19:11;;;;;;;9.80;6.50;;;;;;;16.13;78.78;99020.88;108010;1253;59627;-70
2023/10/15 10:21:38;;;;;;;8.70;7.20;;;;;;;16.04;79.39;99027.35;107961;1253;59572;-72
2023/10/15 10:24:09;;;;;;;9.30;7.20;;;;;;;15.99;79.91;99024.89;108504;1253;73451;-72
2023/10/15 10:26:38;;;;;;;6.20;5.30;;;;;;;15.95;80.23;99026.23;107925;1254;68731;-72
2023/10/15 10:29:06;;;;;;;7.00;5.30;;;;;;;15.95;80.19;99030.37;108175;1255;72672;-72
2023/10/15 10:31:39;;;;;;;5.60;4.40;;;;;;;15.88;79.80;99028.61;108490;1254;60031;-72
2023/10/15 10:34:08;;;;;;;7.20;4.30;;;;;;;15.76;80.04;99025.22;108915;1253;58752;-70
2023/10/15 10:36:38;;;;;;;6.00;4.10;;;;;;;15.67;80.07;99025.22;108667;1253;70822;-71
2023/10/15 10:39:13;;;;;;;6.60;3.90;;;;;;;15.60;79.81;99021.94;108836;1254;68858;-72
2023/10/15 10:41:44;;;;;;;5.00;3.30;;;;;;;15.53;79.75;99021.26;108286;1254;71316;-72
2023/10/15 10:44:19;;;;;;;7.10;3.90;;;;;;;15.57;79.77;99012.95;107996;1253;62471;-72
2023/10/15 10:46:56;;;;;;;4.30;3.50;;;;;;;15.58;79.86;99013.27;107463;1253;59126;-71
2023/10/15 10:49:34;;;;;;;4.50;3.60;;;;;;;15.50;79.92;99010.64;107511;1254;71656;-73
2023/10/15 10:52:03;;;;;;;4.50;3.70;;;;;;;15.43;80.29;99003.50;107630;1253;70430;-71
2023/10/15 10:54:31;;;;;;;4.50;3.40;;;;;;;15.42;81.01;99004.70;107700;1253;72506;-72
2023/10/15 10:57:06;;;;;;;5.80;3.50;;;;;;;15.48;81.10;99009.10;107569;1253;60966;-71
2023/10/15 10:59:39;;;;;;;4.30;3.50;;;;;;;15.56;80.70;99013.90;107865;1260;58761;-70
2023/10/15 11:02:11;;;;;;;4.50;3.60;;;;;;;15.54;80.88;99017.95;107761;1254;71858;-69
2023/10/15 11:04:41;;;;;;;4.10;3.60;;;;;;;15.51;81.15;99016.73;108114;1253;69250;-72
2023/10/15 11:07:10;;;;;;;4.70;3.20;;;;;;;15.49;81.38;99023.99;108697;1255;72505;-71
2023/10/15 11:09:39;;;;;;;4.40;3.10;;;;;;;15.48;80.79;99029.04;108157;1253;60422;-73
2023/10/15 11:12:09;;;;;;;4.10;3.00;;;;;;;15.50;80.59;99022.27;108406;1253;59381;-71
2023/10/15 11:14:37;;;;;;;7.40;4.80;;;;;;;15.54;80.51;99017.00;108524;1254;71811;-71
2023/10/15 11:17:06;;;;;;;6.20;4.80;;;;;;;15.51;80.56;99015.98;108594;1260;68103;-72
2023/10/15 11:19:33;;;;;;;5.10;2.90;;;;;;;15.46;80.90;99012.79;108272;1256;71528;-71
2023/10/15 11:22:01;;;;;;;9.30;3.60;;;;;;;15.45;81.35;99011.18;108421;1253;59272;-72
2023/10/15 11:24:29;;;;;;;3.20;2.90;;;;;;;15.48;81.84;99012.20;108531;1253;58941;-70
2023/10/15 11:26:56;;;;;;;4.50;3.30;;;;;;;15.61;81.35;99019.08;109058;1253;74061;-72
2023/10/15 11:29:30;;;;;;;4.70;3.80;;;;;;;15.69;80.80;99021.91;108638;1253;68659;-70
2023/10/15 11:32:01;;;;;;;5.70;3.60;;;;;;;15.59;80.80;99025.93;108556;1253;71653;-70
2023/10/15 11:34:31;;;;;;;6.50;3.50;;;;;;;15.44;80.82;99026.60;108679;1253;58778;-73
2023/10/15 11:37:01;;;;;;;4.40;2.20;;;;;;;15.29;80.01;99032.39;108632;1255;58764;-71
2023/10/15 11:39:38;;;;;;;3.00;1.80;;;;;;;15.12;78.23;99032.56;108961;1253;70491;-72
2023/10/15 11:42:07;;;;;;;2.40;1.50;;;;;;;15.04;77.38;99041.55;108515;1254;69034;-72
2023/10/15 11:44:42;;;;;;;4.40;2.00;;;;;;;14.91;77.13;99039.75;108711;1253;71087;-73
2023/10/15 11:47:15;;;;;;;3.10;1.90;;;;;;;14.73;77.47;99035.80;108693;1256;60130;-73
2023/10/15 11:49:51;;;;;;;3.60;2.00;;;;;;;14.60;78.21;99036.83;108836;1255;59567;-73
2023/10/15 11:52:18;;;;;;;3.80;1.70;;;;;;;14.51;78.99;99039.55;108384;1253;72654;-73
2023/10/15 11:54:50;;;;;;;2.40;1.60;;;;;;;14.52;79.21;99036.70;108235;1255;69157;-72
2023/10/15 11:57:26;;;;;;;4.00;2.20;;;;;;;14.52;79.42;99038.82;108761;1253;71073;-72